sensor_id;sensor_type;location;lat;lon;timestamp;P1;durP1;ratioP1;P2;durP2;ratioP2
51224;SDS011;37298;42.688;23.312;2024-02-21T00:01:51;8.30;;;6.35;;
51224;SDS011;37298;42.688;23.312;2024-02-21T00:04:17;8.13;;;6.03;;
51224;SDS011;37298;42.688;23.312;2024-02-21T00:06:43;8.23;;;5.82;;
51224;SDS011;37298;42.688;23.312;2024-02-21T00:09:10;9.10;;;6.30;;
51224;SDS011;37298;42.688;23.312;2024-02-21T00:11:37;7.13;;;5.20;;
51224;SDS011;37298;42.688;23.312;2024-02-21T00:14:04;5.57;;;4.13;;
51224;SDS011;37298;42.688;23.312;2024-02-21T00:16:31;7.30;;;5.28;;
51224;SDS011;37298;42.688;23.312;2024-02-21T00:18:57;8.15;;;5.72;;
51224;SDS011;37298;42.688;23.312;2024-02-21T00:21:23;8.15;;;5.35;;
51224;SDS011;37298;42.688;23.312;2024-02-21T00:23:49;10.02;;;6.15;;
51224;SDS011;37298;42.688;23.312;2024-02-21T00:26:16;7.60;;;6.03;;
51224;SDS011;37298;42.688;23.312;2024-02-21T00:28:42;9.30;;;6.10;;
51224;SDS011;37298;42.688;23.312;2024-02-21T00:31:10;8.10;;;6.35;;
51224;SDS011;37298;42.688;23.312;2024-02-21T00:33:36;7.85;;;5.93;;
51224;SDS011;37298;42.688;23.312;2024-02-21T00:36:03;7.40;;;5.22;;
51224;SDS011;37298;42.688;23.312;2024-02-21T00:38:29;7.57;;;5.65;;
51224;SDS011;37298;42.688;23.312;2024-02-21T00:40:55;7.45;;;5.85;;
51224;SDS011;37298;42.688;23.312;2024-02-21T00:43:22;9.00;;;6.25;;
51224;SDS011;37298;42.688;23.312;2024-02-21T00:45:49;8.68;;;4.90;;
51224;SDS011;37298;42.688;23.312;2024-02-21T00:48:17;9.13;;;6.38;;
51224;SDS011;37298;42.688;23.312;2024-02-21T00:50:43;8.90;;;5.50;;
51224;SDS011;37298;42.688;23.312;2024-02-21T00:53:09;7.30;;;5.57;;
51224;SDS011;37298;42.688;23.312;2024-02-21T00:55:36;7.03;;;5.22;;
51224;SDS011;37298;42.688;23.312;2024-02-21T00:58:02;7.30;;;6.00;;
51224;SDS011;37298;42.688;23.312;2024-02-21T01:00:28;7.07;;;6.05;;
51224;SDS011;37298;42.688;23.312;2024-02-21T01:02:55;6.53;;;4.70;;
51224;SDS011;37298;42.688;23.312;2024-02-21T01:05:22;8.05;;;4.80;;
51224;SDS011;37298;42.688;23.312;2024-02-21T01:07:48;6.55;;;4.95;;
51224;SDS011;37298;42.688;23.312;2024-02-21T01:10:15;7.68;;;5.63;;
51224;SDS011;37298;42.688;23.312;2024-02-21T01:12:42;7.10;;;5.65;;
51224;SDS011;37298;42.688;23.312;2024-02-21T01:15:09;8.73;;;6.07;;
51224;SDS011;37298;42.688;23.312;2024-02-21T01:17:36;8.73;;;5.88;;
51224;SDS011;37298;42.688;23.312;2024-02-21T01:20:03;8.10;;;5.30;;
51224;SDS011;37298;42.688;23.312;2024-02-21T01:22:31;7.55;;;5.63;;
51224;SDS011;37298;42.688;23.312;2024-02-21T01:24:58;8.25;;;5.95;;
51224;SDS011;37298;42.688;23.312;2024-02-21T01:27:24;9.15;;;6.40;;
51224;SDS011;37298;42.688;23.312;2024-02-21T01:29:50;7.65;;;5.65;;
51224;SDS011;37298;42.688;23.312;2024-02-21T01:32:16;8.30;;;6.18;;
51224;SDS011;37298;42.688;23.312;2024-02-21T01:34:43;8.57;;;5.85;;
51224;SDS011;37298;42.688;23.312;2024-02-21T01:37:09;8.63;;;5.88;;
51224;SDS011;37298;42.688;23.312;2024-02-21T01:39:36;7.70;;;5.47;;
51224;SDS011;37298;42.688;23.312;2024-02-21T01:42:03;9.93;;;6.47;;
51224;SDS011;37298;42.688;23.312;2024-02-21T01:44:30;8.00;;;5.35;;
51224;SDS011;37298;42.688;23.312;2024-02-21T01:46:57;6.95;;;5.63;;
51224;SDS011;37298;42.688;23.312;2024-02-21T01:49:23;9.45;;;6.40;;
51224;SDS011;37298;42.688;23.312;2024-02-21T01:51:50;7.43;;;5.93;;
51224;SDS011;37298;42.688;23.312;2024-02-21T01:54:17;9.27;;;6.40;;
51224;SDS011;37298;42.688;23.312;2024-02-21T01:56:44;9.20;;;6.43;;
51224;SDS011;37298;42.688;23.312;2024-02-21T01:59:12;8.95;;;6.63;;
51224;SDS011;37298;42.688;23.312;2024-02-21T02:01:39;10.27;;;6.68;;
51224;SDS011;37298;42.688;23.312;2024-02-21T02:04:05;10.63;;;7.30;;
51224;SDS011;37298;42.688;23.312;2024-02-21T02:06:32;10.57;;;6.80;;
51224;SDS011;37298;42.688;23.312;2024-02-21T02:08:58;9.48;;;6.90;;
51224;SDS011;37298;42.688;23.312;2024-02-21T02:11:25;9.95;;;7.20;;
51224;SDS011;37298;42.688;23.312;2024-02-21T02:13:52;10.40;;;7.28;;
51224;SDS011;37298;42.688;23.312;2024-02-21T02:16:18;10.00;;;6.30;;
51224;SDS011;37298;42.688;23.312;2024-02-21T02:18:45;8.27;;;6.53;;
51224;SDS011;37298;42.688;23.312;2024-02-21T02:21:13;11.40;;;7.75;;
51224;SDS011;37298;42.688;23.312;2024-02-21T02:23:42;12.05;;;7.55;;
51224;SDS011;37298;42.688;23.312;2024-02-21T02:26:08;9.32;;;6.95;;
51224;SDS011;37298;42.688;23.312;2024-02-21T02:28:35;11.02;;;7.05;;
51224;SDS011;37298;42.688;23.312;2024-02-21T02:31:02;10.68;;;7.75;;
51224;SDS011;37298;42.688;23.312;2024-02-21T02:33:28;9.68;;;7.18;;
51224;SDS011;37298;42.688;23.312;2024-02-21T02:35:55;11.48;;;8.02;;
51224;SDS011;37298;42.688;23.312;2024-02-21T02:38:21;10.77;;;7.60;;
51224;SDS011;37298;42.688;23.312;2024-02-21T02:40:48;11.77;;;8.70;;
51224;SDS011;37298;42.688;23.312;2024-02-21T02:43:14;11.95;;;8.05;;
51224;SDS011;37298;42.688;23.312;2024-02-21T02:45:40;11.63;;;8.23;;
51224;SDS011;37298;42.688;23.312;2024-02-21T02:48:07;11.35;;;7.97;;
51224;SDS011;37298;42.688;23.312;2024-02-21T02:50:34;15.32;;;8.65;;
51224;SDS011;37298;42.688;23.312;2024-02-21T02:53:00;12.13;;;8.05;;
51224;SDS011;37298;42.688;23.312;2024-02-21T02:55:26;11.13;;;6.78;;
51224;SDS011;37298;42.688;23.312;2024-02-21T02:57:54;9.98;;;7.47;;
51224;SDS011;37298;42.688;23.312;2024-02-21T03:00:21;12.30;;;7.97;;
51224;SDS011;37298;42.688;23.312;2024-02-21T03:02:48;13.57;;;9.38;;
51224;SDS011;37298;42.688;23.312;2024-02-21T03:05:15;11.10;;;7.70;;
51224;SDS011;37298;42.688;23.312;2024-02-21T03:07:42;11.20;;;7.95;;
51224;SDS011;37298;42.688;23.312;2024-02-21T03:10:08;12.98;;;9.05;;
51224;SDS011;37298;42.688;23.312;2024-02-21T03:12:35;12.45;;;8.60;;
51224;SDS011;37298;42.688;23.312;2024-02-21T03:15:02;11.45;;;8.60;;
51224;SDS011;37298;42.688;23.312;2024-02-21T03:17:29;13.25;;;9.13;;
51224;SDS011;37298;42.688;23.312;2024-02-21T03:19:55;13.60;;;8.95;;
51224;SDS011;37298;42.688;23.312;2024-02-21T03:22:21;13.18;;;8.30;;
51224;SDS011;37298;42.688;23.312;2024-02-21T03:24:48;11.30;;;8.25;;
51224;SDS011;37298;42.688;23.312;2024-02-21T03:27:14;12.05;;;8.90;;
51224;SDS011;37298;42.688;23.312;2024-02-21T03:29:41;13.35;;;9.15;;
51224;SDS011;37298;42.688;23.312;2024-02-21T03:32:08;11.65;;;7.68;;
51224;SDS011;37298;42.688;23.312;2024-02-21T03:34:35;12.45;;;9.13;;
51224;SDS011;37298;42.688;23.312;2024-02-21T03:37:01;12.23;;;9.13;;
51224;SDS011;37298;42.688;23.312;2024-02-21T03:39:30;11.90;;;9.02;;
51224;SDS011;37298;42.688;23.312;2024-02-21T03:41:57;11.48;;;8.75;;
51224;SDS011;37298;42.688;23.312;2024-02-21T03:44:23;15.18;;;9.25;;
51224;SDS011;37298;42.688;23.312;2024-02-21T03:46:50;12.85;;;8.80;;
51224;SDS011;37298;42.688;23.312;2024-02-21T03:49:17;13.23;;;8.90;;
51224;SDS011;37298;42.688;23.312;2024-02-21T03:51:43;13.02;;;9.25;;
51224;SDS011;37298;42.688;23.312;2024-02-21T03:54:09;13.15;;;8.93;;
51224;SDS011;37298;42.688;23.312;2024-02-21T03:56:37;11.82;;;9.05;;
51224;SDS011;37298;42.688;23.312;2024-02-21T03:59:03;13.57;;;10.18;;
51224;SDS011;37298;42.688;23.312;2024-02-21T04:01:29;13.18;;;8.40;;
51224;SDS011;37298;42.688;23.312;2024-02-21T04:03:55;13.40;;;8.85;;
51224;SDS011;37298;42.688;23.312;2024-02-21T04:06:22;12.77;;;8.88;;
51224;SDS011;37298;42.688;23.312;2024-02-21T04:08:49;12.45;;;8.52;;
51224;SDS011;37298;42.688;23.312;2024-02-21T04:11:15;13.27;;;8.98;;
51224;SDS011;37298;42.688;23.312;2024-02-21T04:13:42;15.10;;;9.70;;
51224;SDS011;37298;42.688;23.312;2024-02-21T04:16:09;14.48;;;9.38;;
51224;SDS011;37298;42.688;23.312;2024-02-21T04:18:35;16.20;;;9.30;;
51224;SDS011;37298;42.688;23.312;2024-02-21T04:21:02;13.32;;;9.77;;
51224;SDS011;37298;42.688;23.312;2024-02-21T04:23:29;14.57;;;10.32;;
51224;SDS011;37298;42.688;23.312;2024-02-21T04:25:55;13.40;;;9.50;;
51224;SDS011;37298;42.688;23.312;2024-02-21T04:28:21;15.25;;;9.30;;
51224;SDS011;37298;42.688;23.312;2024-02-21T04:30:48;12.88;;;9.73;;
51224;SDS011;37298;42.688;23.312;2024-02-21T04:33:14;15.75;;;9.98;;
51224;SDS011;37298;42.688;23.312;2024-02-21T04:35:40;15.23;;;10.18;;
51224;SDS011;37298;42.688;23.312;2024-02-21T04:38:07;17.63;;;10.90;;
51224;SDS011;37298;42.688;23.312;2024-02-21T04:40:34;13.48;;;10.55;;
51224;SDS011;37298;42.688;23.312;2024-02-21T04:43:01;17.25;;;9.88;;
51224;SDS011;37298;42.688;23.312;2024-02-21T04:45:27;14.75;;;10.15;;
51224;SDS011;37298;42.688;23.312;2024-02-21T04:47:53;15.95;;;11.27;;
51224;SDS011;37298;42.688;23.312;2024-02-21T04:50:19;16.73;;;10.98;;
51224;SDS011;37298;42.688;23.312;2024-02-21T04:52:46;15.10;;;10.55;;
51224;SDS011;37298;42.688;23.312;2024-02-21T04:55:12;19.80;;;12.15;;
51224;SDS011;37298;42.688;23.312;2024-02-21T04:57:39;18.52;;;11.60;;
51224;SDS011;37298;42.688;23.312;2024-02-21T05:00:06;16.55;;;10.68;;
51224;SDS011;37298;42.688;23.312;2024-02-21T05:02:32;15.80;;;10.88;;
51224;SDS011;37298;42.688;23.312;2024-02-21T05:04:59;17.00;;;11.38;;
51224;SDS011;37298;42.688;23.312;2024-02-21T05:07:25;19.50;;;12.25;;
51224;SDS011;37298;42.688;23.312;2024-02-21T05:09:51;17.05;;;11.68;;
51224;SDS011;37298;42.688;23.312;2024-02-21T05:12:18;20.60;;;12.80;;
51224;SDS011;37298;42.688;23.312;2024-02-21T05:14:46;22.13;;;14.15;;
51224;SDS011;37298;42.688;23.312;2024-02-21T05:17:13;25.05;;;13.70;;
51224;SDS011;37298;42.688;23.312;2024-02-21T05:19:39;23.13;;;13.70;;
51224;SDS011;37298;42.688;23.312;2024-02-21T05:22:05;25.30;;;15.00;;
51224;SDS011;37298;42.688;23.312;2024-02-21T05:24:32;27.52;;;13.90;;
51224;SDS011;37298;42.688;23.312;2024-02-21T05:26:58;18.30;;;11.05;;
51224;SDS011;37298;42.688;23.312;2024-02-21T05:29:24;18.20;;;11.82;;
51224;SDS011;37298;42.688;23.312;2024-02-21T05:31:57;17.20;;;10.52;;
51224;SDS011;37298;42.688;23.312;2024-02-21T05:34:24;15.98;;;11.35;;
51224;SDS011;37298;42.688;23.312;2024-02-21T05:36:51;15.38;;;10.63;;
51224;SDS011;37298;42.688;23.312;2024-02-21T05:39:18;15.30;;;10.30;;
51224;SDS011;37298;42.688;23.312;2024-02-21T05:41:44;15.13;;;10.98;;
51224;SDS011;37298;42.688;23.312;2024-02-21T05:44:11;16.05;;;11.40;;
51224;SDS011;37298;42.688;23.312;2024-02-21T05:46:37;16.63;;;11.60;;
51224;SDS011;37298;42.688;23.312;2024-02-21T05:49:04;19.85;;;11.60;;
51224;SDS011;37298;42.688;23.312;2024-02-21T05:51:32;15.70;;;11.32;;
51224;SDS011;37298;42.688;23.312;2024-02-21T05:53:58;18.98;;;12.35;;
51224;SDS011;37298;42.688;23.312;2024-02-21T05:56:24;16.70;;;11.57;;
51224;SDS011;37298;42.688;23.312;2024-02-21T05:58:51;21.60;;;11.20;;
51224;SDS011;37298;42.688;23.312;2024-02-21T06:01:17;20.23;;;12.35;;
51224;SDS011;37298;42.688;23.312;2024-02-21T06:03:43;16.63;;;11.48;;
51224;SDS011;37298;42.688;23.312;2024-02-21T06:06:10;21.73;;;13.85;;
51224;SDS011;37298;42.688;23.312;2024-02-21T06:08:37;18.83;;;12.05;;
51224;SDS011;37298;42.688;23.312;2024-02-21T06:11:03;21.30;;;14.30;;
51224;SDS011;37298;42.688;23.312;2024-02-21T06:13:30;21.58;;;14.10;;
51224;SDS011;37298;42.688;23.312;2024-02-21T06:15:56;25.35;;;15.55;;
51224;SDS011;37298;42.688;23.312;2024-02-21T06:18:22;31.05;;;17.48;;
51224;SDS011;37298;42.688;23.312;2024-02-21T06:20:49;27.40;;;17.17;;
51224;SDS011;37298;42.688;23.312;2024-02-21T06:23:16;27.52;;;17.33;;
51224;SDS011;37298;42.688;23.312;2024-02-21T06:25:42;22.55;;;15.50;;
51224;SDS011;37298;42.688;23.312;2024-02-21T06:28:08;28.27;;;15.43;;
51224;SDS011;37298;42.688;23.312;2024-02-21T06:30:35;24.48;;;15.35;;
51224;SDS011;37298;42.688;23.312;2024-02-21T06:33:01;28.67;;;16.17;;
51224;SDS011;37298;42.688;23.312;2024-02-21T06:35:28;26.98;;;14.15;;
51224;SDS011;37298;42.688;23.312;2024-02-21T06:37:54;23.90;;;15.25;;
51224;SDS011;37298;42.688;23.312;2024-02-21T06:40:21;19.38;;;13.45;;
51224;SDS011;37298;42.688;23.312;2024-02-21T06:42:48;23.42;;;14.10;;
51224;SDS011;37298;42.688;23.312;2024-02-21T06:45:15;26.83;;;14.93;;
51224;SDS011;37298;42.688;23.312;2024-02-21T06:47:41;20.85;;;13.73;;
51224;SDS011;37298;42.688;23.312;2024-02-21T06:50:08;22.38;;;13.75;;
51224;SDS011;37298;42.688;23.312;2024-02-21T06:52:34;20.05;;;12.57;;
51224;SDS011;37298;42.688;23.312;2024-02-21T06:55:01;21.60;;;12.52;;
51224;SDS011;37298;42.688;23.312;2024-02-21T06:57:28;21.83;;;13.07;;
51224;SDS011;37298;42.688;23.312;2024-02-21T06:59:55;19.15;;;12.38;;
51224;SDS011;37298;42.688;23.312;2024-02-21T07:02:22;19.73;;;12.77;;
51224;SDS011;37298;42.688;23.312;2024-02-21T07:04:48;21.20;;;12.15;;
51224;SDS011;37298;42.688;23.312;2024-02-21T07:07:15;21.10;;;13.02;;
51224;SDS011;37298;42.688;23.312;2024-02-21T07:09:41;21.35;;;13.88;;
51224;SDS011;37298;42.688;23.312;2024-02-21T07:12:07;18.10;;;12.50;;
51224;SDS011;37298;42.688;23.312;2024-02-21T07:14:35;24.58;;;13.20;;
51224;SDS011;37298;42.688;23.312;2024-02-21T07:17:01;20.23;;;13.30;;
51224;SDS011;37298;42.688;23.312;2024-02-21T07:19:28;21.83;;;12.75;;
51224;SDS011;37298;42.688;23.312;2024-02-21T07:21:54;27.33;;;13.32;;
51224;SDS011;37298;42.688;23.312;2024-02-21T07:24:20;19.20;;;12.52;;
51224;SDS011;37298;42.688;23.312;2024-02-21T07:26:47;19.08;;;13.90;;
51224;SDS011;37298;42.688;23.312;2024-02-21T07:29:14;17.08;;;11.27;;
51224;SDS011;37298;42.688;23.312;2024-02-21T07:31:41;17.80;;;11.98;;
51224;SDS011;37298;42.688;23.312;2024-02-21T07:34:08;19.02;;;12.50;;
51224;SDS011;37298;42.688;23.312;2024-02-21T07:36:34;17.88;;;11.60;;
51224;SDS011;37298;42.688;23.312;2024-02-21T07:39:01;17.17;;;11.55;;
51224;SDS011;37298;42.688;23.312;2024-02-21T07:41:29;19.88;;;13.52;;
51224;SDS011;37298;42.688;23.312;2024-02-21T07:43:56;16.15;;;11.25;;
51224;SDS011;37298;42.688;23.312;2024-02-21T07:46:22;19.70;;;11.90;;
51224;SDS011;37298;42.688;23.312;2024-02-21T09:50:18;16.40;;;11.63;;
51224;SDS011;37298;42.688;23.312;2024-02-21T09:52:46;12.57;;;9.55;;
51224;SDS011;37298;42.688;23.312;2024-02-21T09:55:14;11.98;;;9.02;;
51224;SDS011;37298;42.688;23.312;2024-02-21T09:57:41;15.35;;;10.05;;
51224;SDS011;37298;42.688;23.312;2024-02-21T10:00:08;11.88;;;10.07;;
51224;SDS011;37298;42.688;23.312;2024-02-21T10:02:39;14.38;;;9.60;;
51224;SDS011;37298;42.688;23.312;2024-02-21T10:05:05;12.43;;;9.10;;
51224;SDS011;37298;42.688;23.312;2024-02-21T10:07:34;12.60;;;9.73;;
51224;SDS011;37298;42.688;23.312;2024-02-21T10:10:01;12.20;;;9.38;;
51224;SDS011;37298;42.688;23.312;2024-02-21T10:12:28;14.63;;;11.40;;
51224;SDS011;37298;42.688;23.312;2024-02-21T10:14:59;12.52;;;8.52;;
51224;SDS011;37298;42.688;23.312;2024-02-21T10:17:26;15.77;;;10.48;;
51224;SDS011;37298;42.688;23.312;2024-02-21T10:19:52;11.73;;;8.85;;
51224;SDS011;37298;42.688;23.312;2024-02-21T10:22:18;9.18;;;6.93;;
51224;SDS011;37298;42.688;23.312;2024-02-21T10:24:47;11.43;;;8.23;;
51224;SDS011;37298;42.688;23.312;2024-02-21T10:27:13;12.55;;;10.07;;
51224;SDS011;37298;42.688;23.312;2024-02-21T10:29:40;12.15;;;8.10;;
51224;SDS011;37298;42.688;23.312;2024-02-21T10:32:06;10.15;;;7.07;;
51224;SDS011;37298;42.688;23.312;2024-02-21T10:34:33;10.07;;;6.78;;
51224;SDS011;37298;42.688;23.312;2024-02-21T10:37:00;10.85;;;7.28;;
51224;SDS011;37298;42.688;23.312;2024-02-21T10:39:28;11.23;;;7.53;;
51224;SDS011;37298;42.688;23.312;2024-02-21T10:41:55;10.55;;;7.63;;
51224;SDS011;37298;42.688;23.312;2024-02-21T10:44:22;10.90;;;7.63;;
51224;SDS011;37298;42.688;23.312;2024-02-21T10:46:49;8.98;;;6.75;;
51224;SDS011;37298;42.688;23.312;2024-02-21T10:49:18;10.02;;;7.47;;
51224;SDS011;37298;42.688;23.312;2024-02-21T10:51:46;9.57;;;7.57;;
51224;SDS011;37298;42.688;23.312;2024-02-21T10:54:16;9.65;;;7.32;;
51224;SDS011;37298;42.688;23.312;2024-02-21T10:56:45;11.00;;;8.15;;
51224;SDS011;37298;42.688;23.312;2024-02-21T10:59:14;7.05;;;6.13;;
51224;SDS011;37298;42.688;23.312;2024-02-21T11:01:40;9.65;;;6.88;;
51224;SDS011;37298;42.688;23.312;2024-02-21T11:04:07;8.40;;;6.78;;
51224;SDS011;37298;42.688;23.312;2024-02-21T11:06:35;9.65;;;6.70;;
51224;SDS011;37298;42.688;23.312;2024-02-21T11:09:03;5.40;;;4.57;;
51224;SDS011;37298;42.688;23.312;2024-02-21T11:11:29;5.35;;;4.75;;
51224;SDS011;37298;42.688;23.312;2024-02-21T11:14:03;5.65;;;4.53;;
51224;SDS011;37298;42.688;23.312;2024-02-21T11:16:34;7.30;;;5.30;;
51224;SDS011;37298;42.688;23.312;2024-02-21T11:19:04;7.47;;;5.40;;
51224;SDS011;37298;42.688;23.312;2024-02-21T11:21:32;5.78;;;5.03;;
51224;SDS011;37298;42.688;23.312;2024-02-21T11:23:59;6.88;;;4.75;;
51224;SDS011;37298;42.688;23.312;2024-02-21T11:26:28;6.53;;;4.93;;
51224;SDS011;37298;42.688;23.312;2024-02-21T11:28:58;7.15;;;4.50;;
51224;SDS011;37298;42.688;23.312;2024-02-21T11:31:25;7.05;;;5.18;;
51224;SDS011;37298;42.688;23.312;2024-02-21T11:33:54;7.20;;;4.85;;
51224;SDS011;37298;42.688;23.312;2024-02-21T11:36:26;8.18;;;5.70;;
51224;SDS011;37298;42.688;23.312;2024-02-21T11:38:52;6.93;;;4.70;;
51224;SDS011;37298;42.688;23.312;2024-02-21T11:41:19;7.68;;;5.32;;
51224;SDS011;37298;42.688;23.312;2024-02-21T11:43:46;5.28;;;4.43;;
51224;SDS011;37298;42.688;23.312;2024-02-21T11:46:12;6.97;;;4.95;;
51224;SDS011;37298;42.688;23.312;2024-02-21T11:48:40;7.72;;;5.18;;
51224;SDS011;37298;42.688;23.312;2024-02-21T11:51:07;10.23;;;5.70;;
51224;SDS011;37298;42.688;23.312;2024-02-21T11:53:33;5.38;;;4.38;;
51224;SDS011;37298;42.688;23.312;2024-02-21T11:56:00;4.82;;;3.53;;
51224;SDS011;37298;42.688;23.312;2024-02-21T11:58:27;5.97;;;3.65;;
51224;SDS011;37298;42.688;23.312;2024-02-21T12:00:53;6.18;;;4.65;;
51224;SDS011;37298;42.688;23.312;2024-02-21T12:03:20;6.03;;;4.50;;
51224;SDS011;37298;42.688;23.312;2024-02-21T12:05:47;6.65;;;5.20;;
51224;SDS011;37298;42.688;23.312;2024-02-21T12:08:14;8.63;;;5.28;;
51224;SDS011;37298;42.688;23.312;2024-02-21T12:10:41;7.25;;;5.32;;
51224;SDS011;37298;42.688;23.312;2024-02-21T12:15:35;7.50;;;5.65;;
51224;SDS011;37298;42.688;23.312;2024-02-21T12:18:02;7.30;;;4.82;;
51224;SDS011;37298;42.688;23.312;2024-02-21T12:20:28;5.32;;;3.92;;
51224;SDS011;37298;42.688;23.312;2024-02-21T12:22:57;8.38;;;5.80;;
51224;SDS011;37298;42.688;23.312;2024-02-21T12:25:26;7.10;;;5.43;;
51224;SDS011;37298;42.688;23.312;2024-02-21T12:27:54;8.85;;;5.45;;
51224;SDS011;37298;42.688;23.312;2024-02-21T12:30:22;5.70;;;3.93;;
51224;SDS011;37298;42.688;23.312;2024-02-21T12:32:48;5.60;;;4.45;;
51224;SDS011;37298;42.688;23.312;2024-02-21T12:35:15;5.35;;;4.38;;
51224;SDS011;37298;42.688;23.312;2024-02-21T12:37:43;5.33;;;3.90;;
51224;SDS011;37298;42.688;23.312;2024-02-21T12:40:10;6.93;;;4.93;;
51224;SDS011;37298;42.688;23.312;2024-02-21T12:42:37;6.60;;;5.13;;
51224;SDS011;37298;42.688;23.312;2024-02-21T12:45:04;7.93;;;5.93;;
51224;SDS011;37298;42.688;23.312;2024-02-21T12:47:31;8.65;;;5.78;;
51224;SDS011;37298;42.688;23.312;2024-02-21T12:49:57;6.80;;;4.50;;
51224;SDS011;37298;42.688;23.312;2024-02-21T12:52:23;8.93;;;4.90;;
51224;SDS011;37298;42.688;23.312;2024-02-21T12:54:50;8.98;;;6.57;;
51224;SDS011;37298;42.688;23.312;2024-02-21T12:57:17;9.20;;;5.93;;
51224;SDS011;37298;42.688;23.312;2024-02-21T12:59:44;9.27;;;6.45;;
51224;SDS011;37298;42.688;23.312;2024-02-21T13:02:10;8.52;;;6.07;;
51224;SDS011;37298;42.688;23.312;2024-02-21T13:04:37;8.77;;;6.15;;
51224;SDS011;37298;42.688;23.312;2024-02-21T13:07:06;10.30;;;6.53;;
51224;SDS011;37298;42.688;23.312;2024-02-21T13:09:33;9.60;;;5.90;;
51224;SDS011;37298;42.688;23.312;2024-02-21T13:11:59;7.15;;;5.45;;
51224;SDS011;37298;42.688;23.312;2024-02-21T13:14:26;9.90;;;7.22;;
51224;SDS011;37298;42.688;23.312;2024-02-21T13:16:53;8.52;;;5.57;;
51224;SDS011;37298;42.688;23.312;2024-02-21T13:19:19;11.98;;;7.28;;
51224;SDS011;37298;42.688;23.312;2024-02-21T13:21:46;7.63;;;4.97;;
51224;SDS011;37298;42.688;23.312;2024-02-21T13:24:12;7.50;;;4.95;;
51224;SDS011;37298;42.688;23.312;2024-02-21T13:26:38;8.75;;;5.45;;
51224;SDS011;37298;42.688;23.312;2024-02-21T13:29:04;9.48;;;6.70;;
51224;SDS011;37298;42.688;23.312;2024-02-21T13:31:31;9.18;;;6.30;;
51224;SDS011;37298;42.688;23.312;2024-02-21T13:33:58;7.28;;;5.50;;
51224;SDS011;37298;42.688;23.312;2024-02-21T13:36:24;9.40;;;5.30;;
51224;SDS011;37298;42.688;23.312;2024-02-21T13:38:51;12.13;;;5.82;;
51224;SDS011;37298;42.688;23.312;2024-02-21T13:41:18;8.20;;;5.97;;
51224;SDS011;37298;42.688;23.312;2024-02-21T13:46:13;17.20;;;10.15;;
51224;SDS011;37298;42.688;23.312;2024-02-21T13:48:39;12.82;;;7.43;;
51224;SDS011;37298;42.688;23.312;2024-02-21T13:51:07;14.60;;;8.93;;
51224;SDS011;37298;42.688;23.312;2024-02-21T13:53:34;15.60;;;9.80;;
51224;SDS011;37298;42.688;23.312;2024-02-21T13:56:00;11.63;;;7.68;;
51224;SDS011;37298;42.688;23.312;2024-02-21T13:58:26;15.20;;;7.20;;
51224;SDS011;37298;42.688;23.312;2024-02-21T14:00:53;9.95;;;5.50;;
51224;SDS011;37298;42.688;23.312;2024-02-21T14:03:19;10.10;;;7.05;;
51224;SDS011;37298;42.688;23.312;2024-02-21T14:05:46;9.38;;;6.28;;
51224;SDS011;37298;42.688;23.312;2024-02-21T14:08:15;7.18;;;5.13;;
51224;SDS011;37298;42.688;23.312;2024-02-21T14:10:41;8.57;;;4.35;;
51224;SDS011;37298;42.688;23.312;2024-02-21T14:13:08;9.75;;;4.95;;
51224;SDS011;37298;42.688;23.312;2024-02-21T14:15:34;6.07;;;4.45;;
51224;SDS011;37298;42.688;23.312;2024-02-21T14:18:02;8.25;;;5.03;;
51224;SDS011;37298;42.688;23.312;2024-02-21T14:20:31;7.70;;;5.25;;
51224;SDS011;37298;42.688;23.312;2024-02-21T14:22:58;8.48;;;5.65;;
51224;SDS011;37298;42.688;23.312;2024-02-21T14:25:25;8.18;;;5.25;;
51224;SDS011;37298;42.688;23.312;2024-02-21T14:27:51;7.68;;;5.00;;
51224;SDS011;37298;42.688;23.312;2024-02-21T14:30:17;5.50;;;4.22;;
51224;SDS011;37298;42.688;23.312;2024-02-21T14:32:44;6.43;;;4.80;;
51224;SDS011;37298;42.688;23.312;2024-02-21T14:35:10;12.77;;;5.72;;
51224;SDS011;37298;42.688;23.312;2024-02-21T14:37:37;8.38;;;5.47;;
51224;SDS011;37298;42.688;23.312;2024-02-21T14:40:04;8.90;;;6.07;;
51224;SDS011;37298;42.688;23.312;2024-02-21T14:42:32;9.00;;;4.60;;
51224;SDS011;37298;42.688;23.312;2024-02-21T14:44:58;11.98;;;6.90;;
51224;SDS011;37298;42.688;23.312;2024-02-21T14:47:30;10.60;;;6.50;;
51224;SDS011;37298;42.688;23.312;2024-02-21T14:49:56;7.38;;;5.85;;
51224;SDS011;37298;42.688;23.312;2024-02-21T14:52:23;9.93;;;6.25;;
51224;SDS011;37298;42.688;23.312;2024-02-21T14:54:51;10.90;;;6.87;;
51224;SDS011;37298;42.688;23.312;2024-02-21T14:57:17;7.05;;;4.70;;
51224;SDS011;37298;42.688;23.312;2024-02-21T14:59:46;7.93;;;5.17;;
51224;SDS011;37298;42.688;23.312;2024-02-21T15:02:15;8.88;;;6.30;;
51224;SDS011;37298;42.688;23.312;2024-02-21T15:04:41;10.93;;;7.30;;
51224;SDS011;37298;42.688;23.312;2024-02-21T15:07:07;9.50;;;5.88;;
51224;SDS011;37298;42.688;23.312;2024-02-21T15:09:34;10.52;;;7.20;;
51224;SDS011;37298;42.688;23.312;2024-02-21T15:12:01;8.90;;;5.97;;
51224;SDS011;37298;42.688;23.312;2024-02-21T15:14:27;11.73;;;6.63;;
51224;SDS011;37298;42.688;23.312;2024-02-21T15:16:55;12.18;;;6.93;;
51224;SDS011;37298;42.688;23.312;2024-02-21T15:19:22;10.20;;;7.10;;
51224;SDS011;37298;42.688;23.312;2024-02-21T15:21:48;10.63;;;6.47;;
51224;SDS011;37298;42.688;23.312;2024-02-21T15:24:15;11.70;;;6.95;;
51224;SDS011;37298;42.688;23.312;2024-02-21T15:26:42;8.00;;;5.72;;
51224;SDS011;37298;42.688;23.312;2024-02-21T15:29:09;8.90;;;6.00;;
51224;SDS011;37298;42.688;23.312;2024-02-21T15:31:35;9.50;;;5.70;;
51224;SDS011;37298;42.688;23.312;2024-02-21T15:34:04;12.07;;;7.43;;
51224;SDS011;37298;42.688;23.312;2024-02-21T15:36:30;9.55;;;6.28;;
51224;SDS011;37298;42.688;23.312;2024-02-21T15:38:56;13.30;;;7.10;;
51224;SDS011;37298;42.688;23.312;2024-02-21T15:41:24;13.23;;;7.32;;
51224;SDS011;37298;42.688;23.312;2024-02-21T15:43:50;11.93;;;6.53;;
51224;SDS011;37298;42.688;23.312;2024-02-21T15:46:19;11.30;;;6.53;;
51224;SDS011;37298;42.688;23.312;2024-02-21T15:48:51;13.45;;;7.82;;
51224;SDS011;37298;42.688;23.312;2024-02-21T15:51:20;10.37;;;7.40;;
51224;SDS011;37298;42.688;23.312;2024-02-21T15:53:47;13.88;;;7.55;;
51224;SDS011;37298;42.688;23.312;2024-02-21T15:56:13;14.68;;;9.50;;
51224;SDS011;37298;42.688;23.312;2024-02-21T15:58:40;19.15;;;8.30;;
51224;SDS011;37298;42.688;23.312;2024-02-21T16:01:06;16.13;;;8.88;;
51224;SDS011;37298;42.688;23.312;2024-02-21T16:03:32;12.50;;;9.05;;
51224;SDS011;37298;42.688;23.312;2024-02-21T16:05:59;12.05;;;8.32;;
51224;SDS011;37298;42.688;23.312;2024-02-21T16:08:27;15.48;;;7.43;;
51224;SDS011;37298;42.688;23.312;2024-02-21T16:10:53;11.80;;;7.88;;
51224;SDS011;37298;42.688;23.312;2024-02-21T16:13:19;11.68;;;8.02;;
51224;SDS011;37298;42.688;23.312;2024-02-21T16:15:46;12.48;;;8.38;;
51224;SDS011;37298;42.688;23.312;2024-02-21T16:18:14;11.88;;;8.32;;
51224;SDS011;37298;42.688;23.312;2024-02-21T16:20:46;14.90;;;9.32;;
51224;SDS011;37298;42.688;23.312;2024-02-21T16:23:13;12.40;;;7.90;;
51224;SDS011;37298;42.688;23.312;2024-02-21T16:25:46;14.70;;;8.68;;
51224;SDS011;37298;42.688;23.312;2024-02-21T16:28:13;12.52;;;8.32;;